sensor_id;sensor_type;location;lat;lon;timestamp;pressure;altitude;pressure_sealevel;temperature;humidity
12785;BME280;6456;42.680;23.260;2023-03-18T00:00:46;95066.31;;;2.63;100.00
12785;BME280;6456;42.680;23.260;2023-03-18T00:03:16;95047.28;;;2.54;100.00
12785;BME280;6456;42.680;23.260;2023-03-18T00:05:43;94986.03;;;2.18;100.00
12785;BME280;6456;42.680;23.260;2023-03-18T00:08:12;95057.41;;;2.66;100.00
12785;BME280;6456;42.680;23.260;2023-03-18T00:10:49;94931.31;;;1.86;100.00
12785;BME280;6456;42.680;23.260;2023-03-18T00:13:16;94968.56;;;2.03;100.00
12785;BME280;6456;42.680;23.260;2023-03-18T00:15:43;94875.97;;;1.52;100.00
12785;BME280;6456;42.680;23.260;2023-03-18T00:18:17;95041.63;;;2.59;100.00
12785;BME280;6456;42.680;23.260;2023-03-18T00:20:46;94948.41;;;1.97;100.00
12785;BME280;6456;42.680;23.260;2023-03-18T00:23:14;94946.28;;;1.92;100.00
12785;BME280;6456;42.680;23.260;2023-03-18T00:25:45;94986.94;;;2.09;100.00
12785;BME280;6456;42.680;23.260;2023-03-18T00:28:13;94980.06;;;2.00;100.00
12785;BME280;6456;42.680;23.260;2023-03-18T00:30:40;94991.84;;;2.12;100.00
12785;BME280;6456;42.680;23.260;2023-03-18T00:33:08;95002.41;;;2.19;100.00
12785;BME280;6456;42.680;23.260;2023-03-18T00:35:35;94858.28;;;1.29;100.00
12785;BME280;6456;42.680;23.260;2023-03-18T00:38:04;95030.47;;;2.41;100.00
12785;BME280;6456;42.680;23.260;2023-03-18T00:40:35;94979.44;;;2.06;100.00
12785;BME280;6456;42.680;23.260;2023-03-18T00:43:19;94887.28;;;1.51;100.00
12785;BME280;6456;42.680;23.260;2023-03-18T00:45:48;95025.25;;;2.33;100.00
12785;BME280;6456;42.680;23.260;2023-03-18T00:48:16;94975.53;;;2.02;100.00
12785;BME280;6456;42.680;23.260;2023-03-18T00:50:43;94905.44;;;1.51;100.00
12785;BME280;6456;42.680;23.260;2023-03-18T00:53:14;94862.38;;;1.14;100.00
12785;BME280;6456;42.680;23.260;2023-03-18T00:55:45;94923.88;;;1.65;100.00
12785;BME280;6456;42.680;23.260;2023-03-18T00:58:12;94967.03;;;1.92;100.00
12785;BME280;6456;42.680;23.260;2023-03-18T01:00:39;94878.06;;;1.30;100.00
12785;BME280;6456;42.680;23.260;2023-03-18T01:03:07;94883.66;;;1.44;100.00
12785;BME280;6456;42.680;23.260;2023-03-18T01:05:34;94823.72;;;1.03;100.00
12785;BME280;6456;42.680;23.260;2023-03-18T01:08:08;94899.03;;;1.37;100.00
12785;BME280;6456;42.680;23.260;2023-03-18T01:10:34;94950.38;;;1.77;100.00
12785;BME280;6456;42.680;23.260;2023-03-18T01:13:03;94890.59;;;1.35;100.00
12785;BME280;6456;42.680;23.260;2023-03-18T01:15:30;94929.81;;;1.58;100.00
12785;BME280;6456;42.680;23.260;2023-03-18T01:17:56;94931.44;;;1.59;100.00
12785;BME280;6456;42.680;23.260;2023-03-18T01:20:24;94895.16;;;1.41;100.00
12785;BME280;6456;42.680;23.260;2023-03-18T01:22:51;94932.47;;;1.66;100.00
12785;BME280;6456;42.680;23.260;2023-03-18T01:25:18;94924.94;;;1.55;100.00
12785;BME280;6456;42.680;23.260;2023-03-18T01:27:45;94988.22;;;2.05;100.00
12785;BME280;6456;42.680;23.260;2023-03-18T01:30:13;94788.19;;;0.70;100.00
12785;BME280;6456;42.680;23.260;2023-03-18T01:32:41;94926.25;;;1.59;100.00
12785;BME280;6456;42.680;23.260;2023-03-18T01:35:09;94869.91;;;1.25;100.00
12785;BME280;6456;42.680;23.260;2023-03-18T01:37:36;94923.53;;;1.60;100.00
12785;BME280;6456;42.680;23.260;2023-03-18T01:40:05;94821.16;;;1.03;100.00
12785;BME280;6456;42.680;23.260;2023-03-18T01:42:32;94938.25;;;1.77;100.00
12785;BME280;6456;42.680;23.260;2023-03-18T01:45:15;94990.13;;;2.03;100.00
12785;BME280;6456;42.680;23.260;2023-03-18T01:47:44;94886.50;;;1.33;100.00
12785;BME280;6456;42.680;23.260;2023-03-18T01:50:14;94984.16;;;2.03;100.00
12785;BME280;6456;42.680;23.260;2023-03-18T01:52:42;94852.38;;;1.19;100.00
12785;BME280;6456;42.680;23.260;2023-03-18T01:55:14;94939.59;;;1.64;100.00
12785;BME280;6456;42.680;23.260;2023-03-18T01:57:43;94879.41;;;1.35;100.00
12785;BME280;6456;42.680;23.260;2023-03-18T02:00:12;94851.63;;;1.27;100.00
12785;BME280;6456;42.680;23.260;2023-03-18T02:02:43;94950.53;;;2.01;100.00
12785;BME280;6456;42.680;23.260;2023-03-18T02:05:17;94816.69;;;1.13;100.00
12785;BME280;6456;42.680;23.260;2023-03-18T02:07:45;94919.56;;;1.74;100.00
12785;BME280;6456;42.680;23.260;2023-03-18T02:10:15;94964.81;;;1.97;100.00
12785;BME280;6456;42.680;23.260;2023-03-18T02:12:45;94969.69;;;2.00;100.00
12785;BME280;6456;42.680;23.260;2023-03-18T02:15:15;94815.22;;;0.93;100.00
12785;BME280;6456;42.680;23.260;2023-03-18T02:17:46;94831.44;;;0.95;100.00
12785;BME280;6456;42.680;23.260;2023-03-18T02:20:31;94962.16;;;1.89;100.00
12785;BME280;6456;42.680;23.260;2023-03-18T02:23:07;94899.75;;;1.47;100.00
12785;BME280;6456;42.680;23.260;2023-03-18T02:25:48;94956.88;;;1.81;100.00
12785;BME280;6456;42.680;23.260;2023-03-18T02:28:21;94980.59;;;1.86;100.00
12785;BME280;6456;42.680;23.260;2023-03-18T02:30:52;94816.34;;;0.73;100.00
12785;BME280;6456;42.680;23.260;2023-03-18T02:33:21;94957.44;;;1.67;100.00
12785;BME280;6456;42.680;23.260;2023-03-18T02:35:52;94963.75;;;1.64;100.00
12785;BME280;6456;42.680;23.260;2023-03-18T02:38:20;94909.97;;;1.31;100.00
12785;BME280;6456;42.680;23.260;2023-03-18T02:40:47;94819.16;;;0.62;100.00
12785;BME280;6456;42.680;23.260;2023-03-18T02:43:22;94861.03;;;0.93;100.00
12785;BME280;6456;42.680;23.260;2023-03-18T02:46:09;94810.59;;;0.61;100.00
12785;BME280;6456;42.680;23.260;2023-03-18T02:48:40;94786.31;;;0.45;100.00
12785;BME280;6456;42.680;23.260;2023-03-18T02:51:08;94960.25;;;1.56;100.00
12785;BME280;6456;42.680;23.260;2023-03-18T02:53:36;94856.53;;;0.77;100.00
12785;BME280;6456;42.680;23.260;2023-03-18T02:56:05;94957.09;;;1.44;100.00
12785;BME280;6456;42.680;23.260;2023-03-18T02:58:34;94908.66;;;1.09;100.00
12785;BME280;6456;42.680;23.260;2023-03-18T03:01:01;94917.75;;;1.13;100.00
12785;BME280;6456;42.680;23.260;2023-03-18T03:03:29;94872.84;;;0.87;100.00
12785;BME280;6456;42.680;23.260;2023-03-18T03:05:56;94918.00;;;1.20;100.00
12785;BME280;6456;42.680;23.260;2023-03-18T03:08:23;94816.50;;;0.54;100.00
12785;BME280;6456;42.680;23.260;2023-03-18T03:10:50;94903.56;;;1.17;100.00
12785;BME280;6456;42.680;23.260;2023-03-18T03:13:18;94882.09;;;1.07;100.00
12785;BME280;6456;42.680;23.260;2023-03-18T03:15:47;94865.81;;;0.97;100.00
12785;BME280;6456;42.680;23.260;2023-03-18T03:18:14;94969.69;;;1.57;100.00
12785;BME280;6456;42.680;23.260;2023-03-18T03:20:41;94837.75;;;0.75;100.00
12785;BME280;6456;42.680;23.260;2023-03-18T03:23:12;94975.22;;;1.62;100.00
12785;BME280;6456;42.680;23.260;2023-03-18T03:25:39;94953.59;;;1.36;100.00
12785;BME280;6456;42.680;23.260;2023-03-18T03:28:06;94961.25;;;1.55;100.00
12785;BME280;6456;42.680;23.260;2023-03-18T03:30:34;94988.88;;;1.64;100.00
12785;BME280;6456;42.680;23.260;2023-03-18T03:33:03;94925.81;;;1.28;100.00
12785;BME280;6456;42.680;23.260;2023-03-18T03:35:31;94862.91;;;0.83;100.00
12785;BME280;6456;42.680;23.260;2023-03-18T03:37:58;94914.22;;;1.14;100.00
12785;BME280;6456;42.680;23.260;2023-03-18T03:40:25;94986.88;;;1.58;100.00
12785;BME280;6456;42.680;23.260;2023-03-18T03:42:52;94907.69;;;1.10;100.00
12785;BME280;6456;42.680;23.260;2023-03-18T03:45:19;94979.78;;;1.42;100.00
12785;BME280;6456;42.680;23.260;2023-03-18T03:47:46;94911.03;;;0.85;100.00
12785;BME280;6456;42.680;23.260;2023-03-18T03:50:16;94849.78;;;0.49;100.00
12785;BME280;6456;42.680;23.260;2023-03-18T03:52:44;94858.88;;;0.53;100.00
12785;BME280;6456;42.680;23.260;2023-03-18T03:55:14;94959.97;;;1.06;100.00
12785;BME280;6456;42.680;23.260;2023-03-18T03:57:42;94984.66;;;1.27;100.00
12785;BME280;6456;42.680;23.260;2023-03-18T04:00:11;94841.69;;;0.34;100.00
12785;BME280;6456;42.680;23.260;2023-03-18T04:02:39;95013.84;;;1.29;100.00
12785;BME280;6456;42.680;23.260;2023-03-18T04:05:07;94982.94;;;1.18;100.00
12785;BME280;6456;42.680;23.260;2023-03-18T04:07:36;94995.56;;;1.04;100.00
12785;BME280;6456;42.680;23.260;2023-03-18T04:10:05;94822.50;;;-0.18;100.00
12785;BME280;6456;42.680;23.260;2023-03-18T04:12:34;94919.84;;;0.38;100.00
12785;BME280;6456;42.680;23.260;2023-03-18T04:15:01;94991.13;;;0.96;100.00
12785;BME280;6456;42.680;23.260;2023-03-18T04:17:28;94967.16;;;0.67;100.00
12785;BME280;6456;42.680;23.260;2023-03-18T04:19:55;94964.34;;;0.51;100.00
12785;BME280;6456;42.680;23.260;2023-03-18T04:22:22;94883.03;;;-0.11;100.00
12785;BME280;6456;42.680;23.260;2023-03-18T04:24:50;94897.94;;;0.05;100.00
12785;BME280;6456;42.680;23.260;2023-03-18T04:27:17;95010.97;;;0.78;100.00
12785;BME280;6456;42.680;23.260;2023-03-18T04:29:44;95015.78;;;0.73;100.00
12785;BME280;6456;42.680;23.260;2023-03-18T04:32:11;94989.84;;;0.46;100.00
12785;BME280;6456;42.680;23.260;2023-03-18T04:34:38;94934.03;;;0.07;100.00
12785;BME280;6456;42.680;23.260;2023-03-18T04:37:06;94989.91;;;0.36;100.00
12785;BME280;6456;42.680;23.260;2023-03-18T04:39:33;94909.84;;;-0.12;100.00
12785;BME280;6456;42.680;23.260;2023-03-18T04:42:02;94943.00;;;0.12;100.00
12785;BME280;6456;42.680;23.260;2023-03-18T04:44:29;94969.47;;;0.33;100.00
12785;BME280;6456;42.680;23.260;2023-03-18T04:46:56;95040.69;;;0.84;100.00
12785;BME280;6456;42.680;23.260;2023-03-18T04:49:23;94958.56;;;0.39;100.00
12785;BME280;6456;42.680;23.260;2023-03-18T04:51:50;94957.50;;;0.32;100.00
12785;BME280;6456;42.680;23.260;2023-03-18T04:54:17;94997.41;;;0.67;100.00
12785;BME280;6456;42.680;23.260;2023-03-18T04:56:44;94950.78;;;0.39;100.00
12785;BME280;6456;42.680;23.260;2023-03-18T04:59:12;94982.69;;;0.67;100.00
12785;BME280;6456;42.680;23.260;2023-03-18T05:01:40;94877.88;;;-0.11;100.00
12785;BME280;6456;42.680;23.260;2023-03-18T05:04:07;94931.19;;;0.37;100.00
12785;BME280;6456;42.680;23.260;2023-03-18T05:06:34;95019.66;;;0.87;100.00
12785;BME280;6456;42.680;23.260;2023-03-18T05:09:03;94891.91;;;0.14;100.00
12785;BME280;6456;42.680;23.260;2023-03-18T05:11:30;94931.09;;;0.29;100.00
12785;BME280;6456;42.680;23.260;2023-03-18T05:13:57;94925.13;;;0.19;100.00
12785;BME280;6456;42.680;23.260;2023-03-18T05:16:25;95041.13;;;1.06;100.00
12785;BME280;6456;42.680;23.260;2023-03-18T05:18:54;94909.22;;;0.14;100.00
12785;BME280;6456;42.680;23.260;2023-03-18T05:21:21;95006.28;;;0.91;100.00
12785;BME280;6456;42.680;23.260;2023-03-18T05:23:48;94916.31;;;0.39;100.00
12785;BME280;6456;42.680;23.260;2023-03-18T05:26:16;94999.13;;;1.03;100.00
12785;BME280;6456;42.680;23.260;2023-03-18T05:28:46;94925.00;;;0.47;100.00
12785;BME280;6456;42.680;23.260;2023-03-18T05:31:13;94906.72;;;0.49;100.00
12785;BME280;6456;42.680;23.260;2023-03-18T05:33:41;94887.13;;;0.46;100.00
12785;BME280;6456;42.680;23.260;2023-03-18T05:36:08;94986.53;;;1.08;100.00
12785;BME280;6456;42.680;23.260;2023-03-18T05:38:35;94880.91;;;0.39;100.00
12785;BME280;6456;42.680;23.260;2023-03-18T05:41:02;95018.50;;;1.44;100.00
12785;BME280;6456;42.680;23.260;2023-03-18T05:43:29;95015.53;;;1.39;100.00
12785;BME280;6456;42.680;23.260;2023-03-18T05:45:56;95032.88;;;1.56;100.00
12785;BME280;6456;42.680;23.260;2023-03-18T05:48:23;95039.72;;;1.57;100.00
12785;BME280;6456;42.680;23.260;2023-03-18T05:50:52;94972.63;;;1.09;100.00
12785;BME280;6456;42.680;23.260;2023-03-18T05:53:19;94959.84;;;1.07;100.00
12785;BME280;6456;42.680;23.260;2023-03-18T05:55:46;95042.50;;;1.46;100.00
12785;BME280;6456;42.680;23.260;2023-03-18T05:58:13;94902.03;;;0.62;100.00
12785;BME280;6456;42.680;23.260;2023-03-18T06:00:40;95019.50;;;1.15;100.00
12785;BME280;6456;42.680;23.260;2023-03-18T06:03:07;95027.97;;;1.17;100.00
12785;BME280;6456;42.680;23.260;2023-03-18T06:05:34;95017.13;;;1.04;100.00
12785;BME280;6456;42.680;23.260;2023-03-18T06:08:03;94976.47;;;0.87;100.00
12785;BME280;6456;42.680;23.260;2023-03-18T06:10:30;95071.72;;;1.48;100.00
12785;BME280;6456;42.680;23.260;2023-03-18T06:12:56;95061.91;;;1.42;100.00
12785;BME280;6456;42.680;23.260;2023-03-18T06:15:23;94960.63;;;0.63;100.00
12785;BME280;6456;42.680;23.260;2023-03-18T06:17:50;95029.47;;;1.10;100.00
12785;BME280;6456;42.680;23.260;2023-03-18T06:20:18;94964.13;;;0.72;100.00
12785;BME280;6456;42.680;23.260;2023-03-18T06:22:45;94954.88;;;0.69;100.00
12785;BME280;6456;42.680;23.260;2023-03-18T06:25:18;95030.56;;;1.17;100.00
12785;BME280;6456;42.680;23.260;2023-03-18T06:27:46;95034.44;;;1.49;100.00
12785;BME280;6456;42.680;23.260;2023-03-18T06:30:14;95039.41;;;1.60;100.00
12785;BME280;6456;42.680;23.260;2023-03-18T06:32:42;95031.47;;;1.79;100.00
12785;BME280;6456;42.680;23.260;2023-03-18T06:35:10;94954.66;;;1.43;100.00
12785;BME280;6456;42.680;23.260;2023-03-18T06:37:37;95056.94;;;2.19;100.00
12785;BME280;6456;42.680;23.260;2023-03-18T06:40:06;94951.72;;;1.63;100.00
12785;BME280;6456;42.680;23.260;2023-03-18T06:42:34;94956.53;;;1.76;100.00
12785;BME280;6456;42.680;23.260;2023-03-18T06:45:01;95038.72;;;2.36;100.00
12785;BME280;6456;42.680;23.260;2023-03-18T06:47:28;95020.66;;;2.27;100.00
12785;BME280;6456;42.680;23.260;2023-03-18T06:49:55;94983.03;;;2.05;100.00
12785;BME280;6456;42.680;23.260;2023-03-18T06:52:22;94917.13;;;1.72;100.00
12785;BME280;6456;42.680;23.260;2023-03-18T06:54:49;95042.97;;;2.37;100.00
12785;BME280;6456;42.680;23.260;2023-03-18T06:57:16;95001.44;;;1.94;100.00
12785;BME280;6456;42.680;23.260;2023-03-18T06:59:46;95040.44;;;2.02;100.00
12785;BME280;6456;42.680;23.260;2023-03-18T07:02:13;95027.31;;;1.86;100.00
12785;BME280;6456;42.680;23.260;2023-03-18T07:04:41;95040.06;;;1.97;100.00
12785;BME280;6456;42.680;23.260;2023-03-18T07:07:07;94998.03;;;1.76;100.00
12785;BME280;6456;42.680;23.260;2023-03-18T07:09:35;94928.84;;;1.41;100.00
12785;BME280;6456;42.680;23.260;2023-03-18T07:12:02;95045.31;;;2.05;100.00
12785;BME280;6456;42.680;23.260;2023-03-18T07:14:30;94948.41;;;1.36;100.00
12785;BME280;6456;42.680;23.260;2023-03-18T07:16:59;95029.66;;;2.15;100.00
12785;BME280;6456;42.680;23.260;2023-03-18T07:19:26;95023.19;;;2.19;100.00
12785;BME280;6456;42.680;23.260;2023-03-18T07:21:53;95033.53;;;2.36;100.00
12785;BME280;6456;42.680;23.260;2023-03-18T07:24:21;94992.78;;;2.11;100.00
12785;BME280;6456;42.680;23.260;2023-03-18T07:26:48;95030.94;;;2.36;100.00
12785;BME280;6456;42.680;23.260;2023-03-18T07:29:16;94895.19;;;1.67;100.00
12785;BME280;6456;42.680;23.260;2023-03-18T07:31:43;95039.78;;;2.51;100.00
12785;BME280;6456;42.680;23.260;2023-03-18T07:34:12;94863.31;;;1.31;100.00
12785;BME280;6456;42.680;23.260;2023-03-18T07:36:42;94949.50;;;1.68;100.00
12785;BME280;6456;42.680;23.260;2023-03-18T07:39:09;94944.31;;;1.68;100.00
12785;BME280;6456;42.680;23.260;2023-03-18T07:41:36;94966.38;;;1.90;100.00
12785;BME280;6456;42.680;23.260;2023-03-18T07:44:03;95042.78;;;2.39;100.00
12785;BME280;6456;42.680;23.260;2023-03-18T07:46:31;95044.13;;;2.43;100.00
12785;BME280;6456;42.680;23.260;2023-03-18T07:48:58;94989.50;;;2.27;100.00
12785;BME280;6456;42.680;23.260;2023-03-18T07:51:27;95048.66;;;2.67;100.00
12785;BME280;6456;42.680;23.260;2023-03-18T07:53:53;94975.09;;;2.32;100.00
12785;BME280;6456;42.680;23.260;2023-03-18T07:56:20;94962.75;;;2.34;100.00
12785;BME280;6456;42.680;23.260;2023-03-18T07:58:47;94966.59;;;2.56;100.00
12785;BME280;6456;42.680;23.260;2023-03-18T08:01:14;95018.91;;;2.95;100.00
12785;BME280;6456;42.680;23.260;2023-03-18T08:03:42;95048.72;;;3.16;100.00
12785;BME280;6456;42.680;23.260;2023-03-18T08:06:10;95054.31;;;3.30;100.00
12785;BME280;6456;42.680;23.260;2023-03-18T08:08:40;95005.94;;;3.11;100.00
12785;BME280;6456;42.680;23.260;2023-03-18T08:11:07;95027.31;;;3.39;100.00
12785;BME280;6456;42.680;23.260;2023-03-18T08:13:34;95028.81;;;3.49;100.00
12785;BME280;6456;42.680;23.260;2023-03-18T08:16:01;95041.53;;;3.60;100.00
12785;BME280;6456;42.680;23.260;2023-03-18T08:18:27;95025.13;;;3.76;100.00
12785;BME280;6456;42.680;23.260;2023-03-18T08:20:54;95013.25;;;3.73;100.00
12785;BME280;6456;42.680;23.260;2023-03-18T08:23:21;95031.34;;;3.83;100.00
12785;BME280;6456;42.680;23.260;2023-03-18T08:25:50;95048.09;;;4.05;100.00
12785;BME280;6456;42.680;23.260;2023-03-18T08:28:17;94938.41;;;3.35;100.00
12785;BME280;6456;42.680;23.260;2023-03-18T08:30:44;94929.97;;;3.33;100.00
12785;BME280;6456;42.680;23.260;2023-03-18T08:33:12;95047.94;;;4.14;100.00
12785;BME280;6456;42.680;23.260;2023-03-18T08:35:40;94957.44;;;3.76;100.00
12785;BME280;6456;42.680;23.260;2023-03-18T08:38:07;95032.31;;;4.22;100.00
12785;BME280;6456;42.680;23.260;2023-03-18T08:40:34;94930.94;;;3.72;100.00
12785;BME280;6456;42.680;23.260;2023-03-18T08:43:03;94970.31;;;4.10;100.00
12785;BME280;6456;42.680;23.260;2023-03-18T08:45:29;94949.41;;;4.34;100.00
12785;BME280;6456;42.680;23.260;2023-03-18T08:47:57;94994.13;;;4.70;100.00
12785;BME280;6456;42.680;23.260;2023-03-18T08:50:24;94948.91;;;4.38;100.00
12785;BME280;6456;42.680;23.260;2023-03-18T08:52:53;95021.56;;;4.96;100.00
12785;BME280;6456;42.680;23.260;2023-03-18T08:55:22;94974.84;;;4.79;99.40
12785;BME280;6456;42.680;23.260;2023-03-18T08:57:49;95057.06;;;5.44;98.46
12785;BME280;6456;42.680;23.260;2023-03-18T09:00:19;94980.53;;;4.90;96.22
12785;BME280;6456;42.680;23.260;2023-03-18T09:02:47;94912.38;;;4.54;96.10
12785;BME280;6456;42.680;23.260;2023-03-18T09:05:14;95059.09;;;5.65;96.35
12785;BME280;6456;42.680;23.260;2023-03-18T09:07:41;95055.09;;;5.77;95.67
12785;BME280;6456;42.680;23.260;2023-03-18T09:10:08;95061.94;;;5.86;95.80
12785;BME280;6456;42.680;23.260;2023-03-18T09:12:37;95049.53;;;5.88;95.57
12785;BME280;6456;42.680;23.260;2023-03-18T09:15:05;95034.22;;;5.77;92.87
12785;BME280;6456;42.680;23.260;2023-03-18T09:17:33;95048.81;;;5.94;90.44
12785;BME280;6456;42.680;23.260;2023-03-18T09:20:02;95056.91;;;6.07;89.17
12785;BME280;6456;42.680;23.260;2023-03-18T09:22:29;95064.16;;;6.20;88.88
12785;BME280;6456;42.680;23.260;2023-03-18T09:24:56;95059.97;;;6.33;86.65
12785;BME280;6456;42.680;23.260;2023-03-18T09:27:23;95058.81;;;6.36;86.95
12785;BME280;6456;42.680;23.260;2023-03-18T09:29:50;94979.59;;;5.98;88.74
12785;BME280;6456;42.680;23.260;2023-03-18T09:32:17;95065.91;;;6.65;87.49
12785;BME280;6456;42.680;23.260;2023-03-18T09:34:46;95058.06;;;6.65;76.73
12785;BME280;6456;42.680;23.260;2023-03-18T09:37:13;95048.50;;;6.72;75.94
12785;BME280;6456;42.680;23.260;2023-03-18T09:39:40;95046.91;;;6.85;78.76
12785;BME280;6456;42.680;23.260;2023-03-18T09:42:18;94983.03;;;6.51;73.55
12785;BME280;6456;42.680;23.260;2023-03-18T09:44:53;95024.44;;;6.76;72.26
12785;BME280;6456;42.680;23.260;2023-03-18T09:47:36;95003.69;;;6.75;70.83
12785;BME280;6456;42.680;23.260;2023-03-18T09:50:20;94974.38;;;6.50;71.65
12785;BME280;6456;42.680;23.260;2023-03-18T09:53:01;95049.34;;;7.01;72.47
12785;BME280;6456;42.680;23.260;2023-03-18T09:55:34;95042.94;;;7.04;72.70
12785;BME280;6456;42.680;23.260;2023-03-18T09:58:08;94925.94;;;6.39;72.49
12785;BME280;6456;42.680;23.260;2023-03-18T10:00:40;95038.88;;;7.16;71.80
12785;BME280;6456;42.680;23.260;2023-03-18T10:03:13;95041.38;;;7.24;72.49
12785;BME280;6456;42.680;23.260;2023-03-18T10:05:49;95044.38;;;7.36;72.36
12785;BME280;6456;42.680;23.260;2023-03-18T10:08:20;95040.50;;;7.46;71.79
12785;BME280;6456;42.680;23.260;2023-03-18T10:10:50;95037.63;;;7.62;72.48
12785;BME280;6456;42.680;23.260;2023-03-18T10:13:20;95011.91;;;7.66;74.43
12785;BME280;6456;42.680;23.260;2023-03-18T10:15:52;95045.09;;;7.80;68.52
12785;BME280;6456;42.680;23.260;2023-03-18T10:18:24;95042.94;;;7.84;65.53
12785;BME280;6456;42.680;23.260;2023-03-18T10:21:09;95043.19;;;7.89;64.17
12785;BME280;6456;42.680;23.260;2023-03-18T10:23:47;95041.91;;;7.85;63.81
12785;BME280;6456;42.680;23.260;2023-03-18T10:26:19;95015.66;;;7.78;68.44
12785;BME280;6456;42.680;23.260;2023-03-18T10:29:02;95034.69;;;8.08;65.48
12785;BME280;6456;42.680;23.260;2023-03-18T10:31:44;95023.81;;;7.90;62.08
12785;BME280;6456;42.680;23.260;2023-03-18T10:34:15;95037.13;;;8.09;62.92
12785;BME280;6456;42.680;23.260;2023-03-18T10:36:49;95018.78;;;8.09;61.96
12785;BME280;6456;42.680;23.260;2023-03-18T10:39:18;95044.03;;;8.31;60.43
12785;BME280;6456;42.680;23.260;2023-03-18T10:41:47;94953.72;;;7.70;58.01
12785;BME280;6456;42.680;23.260;2023-03-18T10:44:17;94983.22;;;8.00;60.44
12785;BME280;6456;42.680;23.260;2023-03-18T10:46:46;94920.00;;;7.61;57.50
12785;BME280;6456;42.680;23.260;2023-03-18T10:49:16;94884.38;;;7.45;57.70
12785;BME280;6456;42.680;23.260;2023-03-18T10:51:50;95027.56;;;8.65;55.50
12785;BME280;6456;42.680;23.260;2023-03-18T10:54:23;95000.59;;;8.71;53.78
12785;BME280;6456;42.680;23.260;2023-03-18T10:56:53;94988.41;;;8.91;52.36
12785;BME280;6456;42.680;23.260;2023-03-18T10:59:21;94897.94;;;8.87;51.35
12785;BME280;6456;42.680;23.260;2023-03-18T11:01:52;94987.50;;;9.66;50.90
12785;BME280;6456;42.680;23.260;2023-03-18T11:04:21;94837.41;;;9.02;55.76
12785;BME280;6456;42.680;23.260;2023-03-18T11:06:54;94936.00;;;9.85;52.28
12785;BME280;6456;42.680;23.260;2023-03-18T11:09:29;94992.63;;;10.00;50.94
12785;BME280;6456;42.680;23.260;2023-03-18T11:11:58;95008.16;;;9.69;58.05
12785;BME280;6456;42.680;23.260;2023-03-18T11:14:30;95000.72;;;9.32;60.42
12785;BME280;6456;42.680;23.260;2023-03-18T11:16:59;94954.59;;;8.75;59.91
12785;BME280;6456;42.680;23.260;2023-03-18T11:19:31;94952.22;;;8.53;60.76
12785;BME280;6456;42.680;23.260;2023-03-18T11:22:18;95006.53;;;8.59;60.95
12785;BME280;6456;42.680;23.260;2023-03-18T11:24:59;95016.47;;;8.42;59.61
12785;BME280;6456;42.680;23.260;2023-03-18T11:27:32;95007.88;;;8.48;60.45
12785;BME280;6456;42.680;23.260;2023-03-18T11:30:19;94983.41;;;8.20;58.72
12785;BME280;6456;42.680;23.260;2023-03-18T11:32:53;94999.13;;;8.20;58.90
12785;BME280;6456;42.680;23.260;2023-03-18T11:35:22;94863.50;;;7.31;59.00
12785;BME280;6456;42.680;23.260;2023-03-18T11:37:53;95002.50;;;8.35;58.77
12785;BME280;6456;42.680;23.260;2023-03-18T11:40:25;94964.94;;;8.28;58.33
12785;BME280;6456;42.680;23.260;2023-03-18T11:42:56;94986.84;;;8.42;57.87
12785;BME280;6456;42.680;23.260;2023-03-18T11:45:38;94907.81;;;7.96;54.09
12785;BME280;6456;42.680;23.260;2023-03-18T11:48:13;94982.53;;;8.62;54.79
12785;BME280;6456;42.680;23.260;2023-03-18T11:50:52;94854.44;;;7.75;51.86
12785;BME280;6456;42.680;23.260;2023-03-18T11:53:27;94980.44;;;8.51;52.66
12785;BME280;6456;42.680;23.260;2023-03-18T11:56:01;95006.47;;;8.52;53.43
12785;BME280;6456;42.680;23.260;2023-03-18T11:58:57;94891.84;;;7.69;52.66
12785;BME280;6456;42.680;23.260;2023-03-18T12:01:30;94950.22;;;8.06;52.91
12785;BME280;6456;42.680;23.260;2023-03-18T12:04:32;95000.50;;;8.37;51.44
12785;BME280;6456;42.680;23.260;2023-03-18T12:07:13;95000.63;;;8.50;51.72
12785;BME280;6456;42.680;23.260;2023-03-18T12:09:52;94955.44;;;8.27;51.31
12785;BME280;6456;42.680;23.260;2023-03-18T12:12:39;95000.34;;;8.66;52.01
12785;BME280;6456;42.680;23.260;2023-03-18T12:15:18;94974.38;;;8.50;54.96
12785;BME280;6456;42.680;23.260;2023-03-18T12:17:56;95013.53;;;8.79;53.43
12785;BME280;6456;42.680;23.260;2023-03-18T12:20:39;94991.56;;;8.87;54.22
12785;BME280;6456;42.680;23.260;2023-03-18T12:23:24;94869.59;;;8.08;52.50
12785;BME280;6456;42.680;23.260;2023-03-18T12:26:02;95004.41;;;9.03;53.59
12785;BME280;6456;42.680;23.260;2023-03-18T12:28:53;94920.94;;;8.51;53.66
12785;BME280;6456;42.680;23.260;2023-03-18T12:31:35;94919.03;;;8.73;56.08
12785;BME280;6456;42.680;23.260;2023-03-18T12:34:15;94813.72;;;8.28;53.67
12785;BME280;6456;42.680;23.260;2023-03-18T12:36:53;94941.19;;;9.04;50.31
12785;BME280;6456;42.680;23.260;2023-03-18T12:42:54;94945.66;;;8.70;46.08
12785;BME280;6456;42.680;23.260;2023-03-18T12:45:31;94974.47;;;8.91;48.95
12785;BME280;6456;42.680;23.260;2023-03-18T12:48:03;94901.41;;;8.60;51.13
12785;BME280;6456;42.680;23.260;2023-03-18T12:50:35;94969.00;;;9.27;50.70
12785;BME280;6456;42.680;23.260;2023-03-18T12:53:09;94927.91;;;9.13;50.53
12785;BME280;6456;42.680;23.260;2023-03-18T12:55:41;94880.38;;;8.94;52.44
12785;BME280;6456;42.680;23.260;2023-03-18T12:58:14;94947.75;;;9.22;49.16
12785;BME280;6456;42.680;23.260;2023-03-18T13:00:48;94963.91;;;9.19;49.53
12785;BME280;6456;42.680;23.260;2023-03-18T13:03:24;94981.09;;;9.28;49.06
12785;BME280;6456;42.680;23.260;2023-03-18T13:05:56;94978.38;;;9.08;51.87
12785;BME280;6456;42.680;23.260;2023-03-18T13:08:43;94974.13;;;9.07;52.12
12785;BME280;6456;42.680;23.260;2023-03-18T13:11:23;94898.34;;;8.50;50.50
12785;BME280;6456;42.680;23.260;2023-03-18T13:13:59;94983.53;;;8.88;50.20
12785;BME280;6456;42.680;23.260;2023-03-18T13:16:27;94984.72;;;8.86;51.38
12785;BME280;6456;42.680;23.260;2023-03-18T13:18:57;94990.81;;;8.93;50.60
12785;BME280;6456;42.680;23.260;2023-03-18T13:21:29;94971.09;;;9.03;51.50